sensor_id;sensor_type;location;lat;lon;timestamp;P1;durP1;ratioP1;P2;durP2;ratioP2
73872;SDS011;62206;47.568;9.364;2024-03-22T00:00:08;9.38;;;7.30;;
73872;SDS011;62206;47.568;9.364;2024-03-22T00:02:41;10.30;;;7.90;;
73872;SDS011;62206;47.568;9.364;2024-03-22T00:05:08;10.68;;;8.23;;
73872;SDS011;62206;47.568;9.364;2024-03-22T00:07:38;8.85;;;7.88;;
73872;SDS011;62206;47.568;9.364;2024-03-22T00:10:05;10.57;;;7.85;;
73872;SDS011;62206;47.568;9.364;2024-03-22T00:12:33;8.40;;;6.85;;
73872;SDS011;62206;47.568;9.364;2024-03-22T00:14:59;9.50;;;7.50;;
73872;SDS011;62206;47.568;9.364;2024-03-22T00:17:27;9.57;;;8.40;;
73872;SDS011;62206;47.568;9.364;2024-03-22T00:19:54;8.85;;;7.85;;
73872;SDS011;62206;47.568;9.364;2024-03-22T00:22:21;9.48;;;8.23;;
73872;SDS011;62206;47.568;9.364;2024-03-22T00:24:48;9.75;;;8.30;;
73872;SDS011;62206;47.568;9.364;2024-03-22T00:27:16;12.90;;;8.25;;
73872;SDS011;62206;47.568;9.364;2024-03-22T00:29:42;10.40;;;8.73;;
73872;SDS011;62206;47.568;9.364;2024-03-22T00:32:09;9.80;;;7.68;;
73872;SDS011;62206;47.568;9.364;2024-03-22T00:34:35;10.35;;;8.23;;
73872;SDS011;62206;47.568;9.364;2024-03-22T00:37:02;8.75;;;7.82;;
73872;SDS011;62206;47.568;9.364;2024-03-22T00:39:28;10.13;;;7.87;;
73872;SDS011;62206;47.568;9.364;2024-03-22T00:41:57;9.07;;;7.53;;
73872;SDS011;62206;47.568;9.364;2024-03-22T00:44:23;10.00;;;7.57;;
73872;SDS011;62206;47.568;9.364;2024-03-22T00:46:50;8.45;;;6.90;;
73872;SDS011;62206;47.568;9.364;2024-03-22T00:49:17;8.65;;;7.65;;
73872;SDS011;62206;47.568;9.364;2024-03-22T00:51:44;9.07;;;7.83;;
73872;SDS011;62206;47.568;9.364;2024-03-22T00:54:10;10.25;;;8.10;;
73872;SDS011;62206;47.568;9.364;2024-03-22T00:56:37;9.07;;;7.47;;
73872;SDS011;62206;47.568;9.364;2024-03-22T00:59:05;8.63;;;7.20;;
73872;SDS011;62206;47.568;9.364;2024-03-22T01:01:32;8.00;;;7.20;;
73872;SDS011;62206;47.568;9.364;2024-03-22T01:03:58;9.63;;;7.47;;
73872;SDS011;62206;47.568;9.364;2024-03-22T01:06:25;9.27;;;7.60;;
73872;SDS011;62206;47.568;9.364;2024-03-22T01:08:52;9.13;;;7.60;;
73872;SDS011;62206;47.568;9.364;2024-03-22T01:11:20;9.07;;;8.15;;
73872;SDS011;62206;47.568;9.364;2024-03-22T01:13:46;8.93;;;7.20;;
73872;SDS011;62206;47.568;9.364;2024-03-22T01:16:14;8.23;;;7.38;;
73872;SDS011;62206;47.568;9.364;2024-03-22T01:18:41;9.13;;;7.80;;
73872;SDS011;62206;47.568;9.364;2024-03-22T01:21:08;8.63;;;7.72;;
73872;SDS011;62206;47.568;9.364;2024-03-22T01:23:34;8.27;;;7.30;;
73872;SDS011;62206;47.568;9.364;2024-03-22T01:26:03;8.20;;;7.30;;
73872;SDS011;62206;47.568;9.364;2024-03-22T01:28:29;10.20;;;7.55;;
73872;SDS011;62206;47.568;9.364;2024-03-22T01:30:56;9.32;;;7.90;;
73872;SDS011;62206;47.568;9.364;2024-03-22T01:33:24;9.05;;;7.53;;
73872;SDS011;62206;47.568;9.364;2024-03-22T01:35:51;8.90;;;7.80;;
73872;SDS011;62206;47.568;9.364;2024-03-22T01:38:17;8.10;;;6.90;;
73872;SDS011;62206;47.568;9.364;2024-03-22T01:40:44;7.95;;;7.10;;
73872;SDS011;62206;47.568;9.364;2024-03-22T01:43:10;7.88;;;7.07;;
73872;SDS011;62206;47.568;9.364;2024-03-22T01:45:37;12.23;;;7.77;;
73872;SDS011;62206;47.568;9.364;2024-03-22T01:48:04;8.13;;;7.07;;
73872;SDS011;62206;47.568;9.364;2024-03-22T01:50:33;9.57;;;7.93;;
73872;SDS011;62206;47.568;9.364;2024-03-22T01:52:59;8.82;;;7.75;;
73872;SDS011;62206;47.568;9.364;2024-03-22T01:55:27;9.35;;;7.35;;
73872;SDS011;62206;47.568;9.364;2024-03-22T01:57:54;8.63;;;7.73;;
73872;SDS011;62206;47.568;9.364;2024-03-22T02:00:22;8.73;;;7.55;;
73872;SDS011;62206;47.568;9.364;2024-03-22T02:02:49;9.50;;;7.88;;
73872;SDS011;62206;47.568;9.364;2024-03-22T02:05:19;10.85;;;7.60;;
73872;SDS011;62206;47.568;9.364;2024-03-22T02:07:47;9.15;;;7.80;;
73872;SDS011;62206;47.568;9.364;2024-03-22T02:10:15;8.13;;;7.30;;
73872;SDS011;62206;47.568;9.364;2024-03-22T02:12:41;8.35;;;7.53;;
73872;SDS011;62206;47.568;9.364;2024-03-22T02:15:08;9.23;;;8.07;;
73872;SDS011;62206;47.568;9.364;2024-03-22T02:17:35;9.38;;;7.35;;
73872;SDS011;62206;47.568;9.364;2024-03-22T02:20:02;9.25;;;7.57;;
73872;SDS011;62206;47.568;9.364;2024-03-22T02:22:30;8.27;;;7.47;;
73872;SDS011;62206;47.568;9.364;2024-03-22T02:24:58;8.43;;;7.53;;
73872;SDS011;62206;47.568;9.364;2024-03-22T02:27:25;8.55;;;7.75;;
73872;SDS011;62206;47.568;9.364;2024-03-22T02:29:51;9.57;;;8.57;;
73872;SDS011;62206;47.568;9.364;2024-03-22T02:32:19;10.55;;;8.80;;
73872;SDS011;62206;47.568;9.364;2024-03-22T02:34:45;10.40;;;8.87;;
73872;SDS011;62206;47.568;9.364;2024-03-22T02:37:12;10.38;;;8.95;;
73872;SDS011;62206;47.568;9.364;2024-03-22T02:39:38;10.45;;;8.32;;
73872;SDS011;62206;47.568;9.364;2024-03-22T02:42:07;9.38;;;8.35;;
73872;SDS011;62206;47.568;9.364;2024-03-22T02:44:33;8.40;;;7.47;;
73872;SDS011;62206;47.568;9.364;2024-03-22T02:47:04;8.93;;;7.93;;
73872;SDS011;62206;47.568;9.364;2024-03-22T02:49:30;8.55;;;7.55;;
73872;SDS011;62206;47.568;9.364;2024-03-22T02:51:57;9.10;;;8.20;;
73872;SDS011;62206;47.568;9.364;2024-03-22T02:54:23;9.07;;;7.97;;
73872;SDS011;62206;47.568;9.364;2024-03-22T02:56:50;8.95;;;7.90;;
73872;SDS011;62206;47.568;9.364;2024-03-22T02:59:18;9.83;;;8.13;;
73872;SDS011;62206;47.568;9.364;2024-03-22T03:01:45;9.30;;;7.95;;
73872;SDS011;62206;47.568;9.364;2024-03-22T03:04:11;8.57;;;7.68;;
73872;SDS011;62206;47.568;9.364;2024-03-22T03:06:38;9.15;;;8.25;;
73872;SDS011;62206;47.568;9.364;2024-03-22T03:09:05;8.30;;;7.20;;
73872;SDS011;62206;47.568;9.364;2024-03-22T03:11:33;9.90;;;8.00;;
73872;SDS011;62206;47.568;9.364;2024-03-22T03:13:59;8.70;;;7.80;;
73872;SDS011;62206;47.568;9.364;2024-03-22T03:16:28;10.27;;;7.82;;
73872;SDS011;62206;47.568;9.364;2024-03-22T03:18:53;8.73;;;7.77;;
73872;SDS011;62206;47.568;9.364;2024-03-22T03:21:20;8.68;;;7.70;;
73872;SDS011;62206;47.568;9.364;2024-03-22T03:23:47;8.45;;;7.55;;
73872;SDS011;62206;47.568;9.364;2024-03-22T03:26:14;8.13;;;7.32;;
73872;SDS011;62206;47.568;9.364;2024-03-22T03:28:40;9.45;;;8.07;;
73872;SDS011;62206;47.568;9.364;2024-03-22T03:31:07;10.17;;;7.63;;
73872;SDS011;62206;47.568;9.364;2024-03-22T03:33:35;9.10;;;6.85;;
73872;SDS011;62206;47.568;9.364;2024-03-22T03:36:02;9.50;;;7.78;;
73872;SDS011;62206;47.568;9.364;2024-03-22T03:38:29;8.48;;;7.57;;
73872;SDS011;62206;47.568;9.364;2024-03-22T03:40:56;11.45;;;7.60;;
73872;SDS011;62206;47.568;9.364;2024-03-22T03:43:21;8.40;;;7.32;;
73872;SDS011;62206;47.568;9.364;2024-03-22T03:45:49;9.85;;;8.13;;
73872;SDS011;62206;47.568;9.364;2024-03-22T03:48:15;8.57;;;7.18;;
73872;SDS011;62206;47.568;9.364;2024-03-22T03:50:51;8.38;;;7.57;;
73872;SDS011;62206;47.568;9.364;2024-03-22T03:53:20;9.65;;;7.88;;
73872;SDS011;62206;47.568;9.364;2024-03-22T03:55:47;8.20;;;7.40;;
73872;SDS011;62206;47.568;9.364;2024-03-22T03:58:13;8.77;;;7.85;;
73872;SDS011;62206;47.568;9.364;2024-03-22T04:00:40;10.52;;;8.45;;
73872;SDS011;62206;47.568;9.364;2024-03-22T04:03:06;8.75;;;6.72;;
73872;SDS011;62206;47.568;9.364;2024-03-22T04:05:33;8.63;;;7.72;;
73872;SDS011;62206;47.568;9.364;2024-03-22T04:08:01;8.07;;;7.28;;
73872;SDS011;62206;47.568;9.364;2024-03-22T04:10:28;9.15;;;8.25;;
73872;SDS011;62206;47.568;9.364;2024-03-22T04:12:54;8.60;;;7.80;;
73872;SDS011;62206;47.568;9.364;2024-03-22T04:15:22;8.93;;;7.93;;
73872;SDS011;62206;47.568;9.364;2024-03-22T04:17:47;9.73;;;8.80;;
73872;SDS011;62206;47.568;9.364;2024-03-22T04:20:14;9.65;;;7.68;;
73872;SDS011;62206;47.568;9.364;2024-03-22T04:22:41;11.43;;;8.82;;
73872;SDS011;62206;47.568;9.364;2024-03-22T04:25:09;9.63;;;8.63;;
73872;SDS011;62206;47.568;9.364;2024-03-22T04:27:35;10.27;;;8.52;;
73872;SDS011;62206;47.568;9.364;2024-03-22T04:30:03;8.75;;;7.85;;
73872;SDS011;62206;47.568;9.364;2024-03-22T04:32:30;9.57;;;7.40;;
73872;SDS011;62206;47.568;9.364;2024-03-22T04:34:57;10.55;;;7.85;;
73872;SDS011;62206;47.568;9.364;2024-03-22T04:37:23;9.27;;;7.60;;
73872;SDS011;62206;47.568;9.364;2024-03-22T04:39:51;9.80;;;7.35;;
73872;SDS011;62206;47.568;9.364;2024-03-22T04:42:20;7.97;;;7.20;;
73872;SDS011;62206;47.568;9.364;2024-03-22T04:44:48;8.00;;;6.55;;
73872;SDS011;62206;47.568;9.364;2024-03-22T04:47:15;8.55;;;7.18;;
73872;SDS011;62206;47.568;9.364;2024-03-22T04:49:41;10.05;;;7.55;;
73872;SDS011;62206;47.568;9.364;2024-03-22T04:52:08;10.35;;;9.35;;
73872;SDS011;62206;47.568;9.364;2024-03-22T04:54:34;11.65;;;9.13;;
73872;SDS011;62206;47.568;9.364;2024-03-22T04:57:01;9.37;;;7.03;;
73872;SDS011;62206;47.568;9.364;2024-03-22T04:59:29;8.02;;;6.88;;
73872;SDS011;62206;47.568;9.364;2024-03-22T05:01:56;7.82;;;7.03;;
73872;SDS011;62206;47.568;9.364;2024-03-22T05:04:22;8.63;;;6.78;;
73872;SDS011;62206;47.568;9.364;2024-03-22T05:06:49;7.43;;;6.53;;
73872;SDS011;62206;47.568;9.364;2024-03-22T05:09:15;8.35;;;7.15;;
73872;SDS011;62206;47.568;9.364;2024-03-22T05:11:42;7.47;;;6.65;;
73872;SDS011;62206;47.568;9.364;2024-03-22T05:14:09;8.05;;;7.10;;
73872;SDS011;62206;47.568;9.364;2024-03-22T05:16:37;8.80;;;6.78;;
73872;SDS011;62206;47.568;9.364;2024-03-22T05:19:03;7.73;;;6.60;;
73872;SDS011;62206;47.568;9.364;2024-03-22T05:21:31;9.77;;;6.65;;
73872;SDS011;62206;47.568;9.364;2024-03-22T05:23:57;8.13;;;7.20;;
73872;SDS011;62206;47.568;9.364;2024-03-22T05:26:24;9.63;;;7.72;;
73872;SDS011;62206;47.568;9.364;2024-03-22T05:28:50;8.60;;;7.65;;
73872;SDS011;62206;47.568;9.364;2024-03-22T05:31:17;9.10;;;8.25;;
73872;SDS011;62206;47.568;9.364;2024-03-22T05:33:47;10.82;;;8.65;;
73872;SDS011;62206;47.568;9.364;2024-03-22T05:36:13;8.88;;;7.97;;
73872;SDS011;62206;47.568;9.364;2024-03-22T05:38:40;9.57;;;8.45;;
73872;SDS011;62206;47.568;9.364;2024-03-22T05:41:06;9.77;;;8.77;;
73872;SDS011;62206;47.568;9.364;2024-03-22T05:43:34;9.10;;;7.93;;
73872;SDS011;62206;47.568;9.364;2024-03-22T05:46:00;9.57;;;7.28;;
73872;SDS011;62206;47.568;9.364;2024-03-22T05:48:27;9.27;;;8.35;;
73872;SDS011;62206;47.568;9.364;2024-03-22T05:50:55;9.30;;;8.30;;
73872;SDS011;62206;47.568;9.364;2024-03-22T05:53:22;9.90;;;8.90;;
73872;SDS011;62206;47.568;9.364;2024-03-22T05:55:49;10.13;;;8.50;;
73872;SDS011;62206;47.568;9.364;2024-03-22T05:58:16;9.63;;;8.43;;
73872;SDS011;62206;47.568;9.364;2024-03-22T06:00:42;9.07;;;7.10;;
73872;SDS011;62206;47.568;9.364;2024-03-22T06:03:09;9.40;;;8.48;;
73872;SDS011;62206;47.568;9.364;2024-03-22T06:05:36;8.60;;;7.63;;
73872;SDS011;62206;47.568;9.364;2024-03-22T06:08:05;8.30;;;7.43;;
73872;SDS011;62206;47.568;9.364;2024-03-22T06:10:32;10.10;;;7.63;;
73872;SDS011;62206;47.568;9.364;2024-03-22T06:12:59;9.05;;;7.35;;
73872;SDS011;62206;47.568;9.364;2024-03-22T06:15:25;8.80;;;7.90;;
73872;SDS011;62206;47.568;9.364;2024-03-22T06:17:52;12.10;;;8.15;;
73872;SDS011;62206;47.568;9.364;2024-03-22T06:20:19;10.80;;;8.52;;
73872;SDS011;62206;47.568;9.364;2024-03-22T06:22:46;9.38;;;8.43;;
73872;SDS011;62206;47.568;9.364;2024-03-22T06:25:13;10.33;;;9.00;;
73872;SDS011;62206;47.568;9.364;2024-03-22T06:27:41;10.20;;;9.15;;
73872;SDS011;62206;47.568;9.364;2024-03-22T06:30:07;10.27;;;9.10;;
73872;SDS011;62206;47.568;9.364;2024-03-22T06:32:34;10.95;;;9.95;;
73872;SDS011;62206;47.568;9.364;2024-03-22T06:35:01;11.60;;;9.07;;
73872;SDS011;62206;47.568;9.364;2024-03-22T06:37:28;11.27;;;9.20;;
73872;SDS011;62206;47.568;9.364;2024-03-22T06:39:54;10.80;;;9.65;;
73872;SDS011;62206;47.568;9.364;2024-03-22T06:42:23;10.60;;;9.50;;
73872;SDS011;62206;47.568;9.364;2024-03-22T06:44:49;10.75;;;8.90;;
73872;SDS011;62206;47.568;9.364;2024-03-22T06:47:16;10.83;;;9.10;;
73872;SDS011;62206;47.568;9.364;2024-03-22T06:49:42;10.73;;;9.27;;
73872;SDS011;62206;47.568;9.364;2024-03-22T06:52:11;12.80;;;10.68;;
73872;SDS011;62206;47.568;9.364;2024-03-22T06:54:37;12.07;;;9.88;;
73872;SDS011;62206;47.568;9.364;2024-03-22T06:57:05;10.88;;;9.43;;
73872;SDS011;62206;47.568;9.364;2024-03-22T06:59:35;13.20;;;10.50;;
73872;SDS011;62206;47.568;9.364;2024-03-22T07:02:03;11.23;;;9.93;;
73872;SDS011;62206;47.568;9.364;2024-03-22T07:04:30;10.88;;;9.75;;
73872;SDS011;62206;47.568;9.364;2024-03-22T07:06:57;11.63;;;10.35;;
73872;SDS011;62206;47.568;9.364;2024-03-22T07:09:23;10.70;;;9.60;;
73872;SDS011;62206;47.568;9.364;2024-03-22T07:11:50;10.23;;;9.18;;
73872;SDS011;62206;47.568;9.364;2024-03-22T07:14:16;12.43;;;10.48;;
73872;SDS011;62206;47.568;9.364;2024-03-22T07:16:44;10.30;;;8.20;;
73872;SDS011;62206;47.568;9.364;2024-03-22T07:19:11;11.83;;;9.17;;
73872;SDS011;62206;47.568;9.364;2024-03-22T07:21:38;11.15;;;9.57;;
73872;SDS011;62206;47.568;9.364;2024-03-22T07:24:04;13.18;;;9.38;;
73872;SDS011;62206;47.568;9.364;2024-03-22T07:26:32;11.32;;;10.13;;
73872;SDS011;62206;47.568;9.364;2024-03-22T07:28:57;12.50;;;9.43;;
73872;SDS011;62206;47.568;9.364;2024-03-22T07:31:24;11.23;;;9.73;;
73872;SDS011;62206;47.568;9.364;2024-03-22T07:33:54;11.45;;;9.25;;
73872;SDS011;62206;47.568;9.364;2024-03-22T07:36:21;11.02;;;9.18;;
73872;SDS011;62206;47.568;9.364;2024-03-22T07:38:47;11.00;;;9.60;;
73872;SDS011;62206;47.568;9.364;2024-03-22T07:41:15;11.38;;;9.00;;
73872;SDS011;62206;47.568;9.364;2024-03-22T07:43:40;11.45;;;9.80;;
73872;SDS011;62206;47.568;9.364;2024-03-22T07:46:07;10.93;;;9.73;;
73872;SDS011;62206;47.568;9.364;2024-03-22T07:48:35;11.77;;;9.80;;
73872;SDS011;62206;47.568;9.364;2024-03-22T07:51:03;11.70;;;10.43;;
73872;SDS011;62206;47.568;9.364;2024-03-22T07:53:29;12.73;;;10.43;;
73872;SDS011;62206;47.568;9.364;2024-03-22T07:55:57;11.10;;;10.00;;
73872;SDS011;62206;47.568;9.364;2024-03-22T07:58:23;11.63;;;10.32;;
73872;SDS011;62206;47.568;9.364;2024-03-22T08:00:50;12.60;;;10.33;;
73872;SDS011;62206;47.568;9.364;2024-03-22T08:03:17;12.57;;;10.52;;
73872;SDS011;62206;47.568;9.364;2024-03-22T08:05:44;12.75;;;10.50;;
73872;SDS011;62206;47.568;9.364;2024-03-22T08:08:11;11.65;;;10.02;;
73872;SDS011;62206;47.568;9.364;2024-03-22T08:10:38;14.18;;;11.05;;
73872;SDS011;62206;47.568;9.364;2024-03-22T08:13:04;11.60;;;10.40;;
73872;SDS011;62206;47.568;9.364;2024-03-22T08:15:31;11.50;;;10.30;;
73872;SDS011;62206;47.568;9.364;2024-03-22T08:17:58;12.20;;;10.80;;
73872;SDS011;62206;47.568;9.364;2024-03-22T08:20:25;12.38;;;11.02;;
73872;SDS011;62206;47.568;9.364;2024-03-22T08:22:51;12.30;;;11.00;;
73872;SDS011;62206;47.568;9.364;2024-03-22T08:25:20;11.80;;;10.60;;
73872;SDS011;62206;47.568;9.364;2024-03-22T08:27:45;13.63;;;11.52;;
73872;SDS011;62206;47.568;9.364;2024-03-22T08:30:13;12.85;;;11.23;;
73872;SDS011;62206;47.568;9.364;2024-03-22T08:32:39;13.35;;;11.98;;
73872;SDS011;62206;47.568;9.364;2024-03-22T08:35:06;14.17;;;11.73;;
73872;SDS011;62206;47.568;9.364;2024-03-22T08:37:33;12.02;;;10.48;;
73872;SDS011;62206;47.568;9.364;2024-03-22T08:40:00;13.27;;;11.93;;
73872;SDS011;62206;47.568;9.364;2024-03-22T08:42:31;12.20;;;10.98;;
73872;SDS011;62206;47.568;9.364;2024-03-22T08:44:58;12.88;;;11.57;;
73872;SDS011;62206;47.568;9.364;2024-03-22T08:47:24;14.10;;;10.60;;
73872;SDS011;62206;47.568;9.364;2024-03-22T08:49:51;12.00;;;10.80;;
73872;SDS011;62206;47.568;9.364;2024-03-22T08:52:17;13.45;;;11.32;;
73872;SDS011;62206;47.568;9.364;2024-03-22T08:54:45;13.48;;;10.82;;
73872;SDS011;62206;47.568;9.364;2024-03-22T08:57:11;12.53;;;10.67;;
73872;SDS011;62206;47.568;9.364;2024-03-22T08:59:39;12.20;;;9.45;;
73872;SDS011;62206;47.568;9.364;2024-03-22T09:02:06;11.95;;;10.75;;
73872;SDS011;62206;47.568;9.364;2024-03-22T09:04:33;13.57;;;10.77;;
73872;SDS011;62206;47.568;9.364;2024-03-22T09:06:58;13.48;;;11.07;;
73872;SDS011;62206;47.568;9.364;2024-03-22T09:09:26;14.45;;;10.85;;
73872;SDS011;62206;47.568;9.364;2024-03-22T09:11:53;13.90;;;12.30;;
73872;SDS011;62206;47.568;9.364;2024-03-22T09:14:19;13.27;;;11.18;;
73872;SDS011;62206;47.568;9.364;2024-03-22T09:16:48;13.13;;;11.20;;
73872;SDS011;62206;47.568;9.364;2024-03-22T09:19:14;12.57;;;10.40;;
73872;SDS011;62206;47.568;9.364;2024-03-22T09:21:41;12.73;;;11.10;;
73872;SDS011;62206;47.568;9.364;2024-03-22T09:24:08;12.65;;;11.35;;
73872;SDS011;62206;47.568;9.364;2024-03-22T09:26:35;13.32;;;11.93;;
73872;SDS011;62206;47.568;9.364;2024-03-22T09:29:01;14.47;;;11.60;;
73872;SDS011;62206;47.568;9.364;2024-03-22T09:31:29;13.82;;;12.38;;
73872;SDS011;62206;47.568;9.364;2024-03-22T09:33:57;14.15;;;11.77;;
73872;SDS011;62206;47.568;9.364;2024-03-22T09:36:24;13.85;;;11.32;;
73872;SDS011;62206;47.568;9.364;2024-03-22T09:38:51;12.52;;;10.77;;
73872;SDS011;62206;47.568;9.364;2024-03-22T09:41:18;13.23;;;11.00;;
73872;SDS011;62206;47.568;9.364;2024-03-22T09:43:49;12.60;;;10.63;;
73872;SDS011;62206;47.568;9.364;2024-03-22T09:46:18;12.77;;;11.32;;
73872;SDS011;62206;47.568;9.364;2024-03-22T09:48:46;11.73;;;10.48;;
73872;SDS011;62206;47.568;9.364;2024-03-22T09:51:16;13.48;;;11.27;;
73872;SDS011;62206;47.568;9.364;2024-03-22T09:53:43;13.37;;;10.33;;
73872;SDS011;62206;47.568;9.364;2024-03-22T09:56:10;13.02;;;10.18;;
73872;SDS011;62206;47.568;9.364;2024-03-22T09:58:39;12.98;;;10.23;;
73872;SDS011;62206;47.568;9.364;2024-03-22T10:01:07;14.98;;;11.50;;
73872;SDS011;62206;47.568;9.364;2024-03-22T10:03:33;14.63;;;10.67;;
73872;SDS011;62206;47.568;9.364;2024-03-22T10:06:02;12.45;;;10.88;;
73872;SDS011;62206;47.568;9.364;2024-03-22T10:08:31;11.95;;;10.57;;
73872;SDS011;62206;47.568;9.364;2024-03-22T10:11:01;12.52;;;10.80;;
73872;SDS011;62206;47.568;9.364;2024-03-22T10:13:29;11.73;;;10.52;;
73872;SDS011;62206;47.568;9.364;2024-03-22T10:15:56;12.10;;;10.65;;
73872;SDS011;62206;47.568;9.364;2024-03-22T10:18:22;14.00;;;11.38;;
73872;SDS011;62206;47.568;9.364;2024-03-22T10:20:58;12.55;;;11.25;;
73872;SDS011;62206;47.568;9.364;2024-03-22T10:23:25;12.63;;;10.68;;
73872;SDS011;62206;47.568;9.364;2024-03-22T10:25:55;12.23;;;10.52;;
73872;SDS011;62206;47.568;9.364;2024-03-22T10:28:21;11.63;;;9.68;;
73872;SDS011;62206;47.568;9.364;2024-03-22T10:30:50;11.23;;;10.13;;
73872;SDS011;62206;47.568;9.364;2024-03-22T10:33:17;11.82;;;10.63;;
73872;SDS011;62206;47.568;9.364;2024-03-22T10:35:45;11.07;;;9.63;;
73872;SDS011;62206;47.568;9.364;2024-03-22T10:38:11;11.43;;;9.48;;
73872;SDS011;62206;47.568;9.364;2024-03-22T10:40:43;10.55;;;9.27;;
73872;SDS011;62206;47.568;9.364;2024-03-22T10:43:11;10.55;;;8.20;;
73872;SDS011;62206;47.568;9.364;2024-03-22T10:45:39;11.43;;;9.00;;
73872;SDS011;62206;47.568;9.364;2024-03-22T10:48:07;10.30;;;9.00;;
73872;SDS011;62206;47.568;9.364;2024-03-22T10:50:37;12.43;;;9.43;;
73872;SDS011;62206;47.568;9.364;2024-03-22T10:53:06;10.10;;;8.55;;
73872;SDS011;62206;47.568;9.364;2024-03-22T10:55:35;10.27;;;9.18;;
73872;SDS011;62206;47.568;9.364;2024-03-22T10:58:03;12.63;;;9.27;;
73872;SDS011;62206;47.568;9.364;2024-03-22T11:00:32;11.18;;;8.60;;
73872;SDS011;62206;47.568;9.364;2024-03-22T11:03:01;10.32;;;9.27;;
73872;SDS011;62206;47.568;9.364;2024-03-22T11:05:28;9.77;;;8.77;;
73872;SDS011;62206;47.568;9.364;2024-03-22T11:07:58;10.43;;;9.43;;
73872;SDS011;62206;47.568;9.364;2024-03-22T11:10:28;11.80;;;9.60;;
73872;SDS011;62206;47.568;9.364;2024-03-22T11:12:55;10.32;;;8.35;;
73872;SDS011;62206;47.568;9.364;2024-03-22T11:15:23;10.10;;;9.05;;
73872;SDS011;62206;47.568;9.364;2024-03-22T11:17:51;12.98;;;9.20;;
73872;SDS011;62206;47.568;9.364;2024-03-22T11:20:18;10.10;;;9.00;;
73872;SDS011;62206;47.568;9.364;2024-03-22T11:22:44;11.95;;;8.93;;
73872;SDS011;62206;47.568;9.364;2024-03-22T11:25:11;11.48;;;9.57;;
73872;SDS011;62206;47.568;9.364;2024-03-22T11:27:37;11.40;;;9.90;;
73872;SDS011;62206;47.568;9.364;2024-03-22T11:30:05;10.77;;;9.18;;
73872;SDS011;62206;47.568;9.364;2024-03-22T11:32:33;10.48;;;8.80;;
73872;SDS011;62206;47.568;9.364;2024-03-22T11:35:08;10.07;;;8.90;;
73872;SDS011;62206;47.568;9.364;2024-03-22T11:37:35;9.82;;;7.32;;
73872;SDS011;62206;47.568;9.364;2024-03-22T11:40:03;10.65;;;7.65;;
73872;SDS011;62206;47.568;9.364;2024-03-22T11:42:30;9.43;;;7.88;;
73872;SDS011;62206;47.568;9.364;2024-03-22T11:44:59;9.55;;;7.80;;
73872;SDS011;62206;47.568;9.364;2024-03-22T11:47:25;10.52;;;8.13;;
73872;SDS011;62206;47.568;9.364;2024-03-22T11:49:52;9.43;;;8.48;;
73872;SDS011;62206;47.568;9.364;2024-03-22T11:52:20;10.05;;;8.80;;
73872;SDS011;62206;47.568;9.364;2024-03-22T11:57:47;11.65;;;9.13;;
73872;SDS011;62206;47.568;9.364;2024-03-22T12:00:14;10.15;;;8.98;;
73872;SDS011;62206;47.568;9.364;2024-03-22T12:02:43;9.52;;;8.30;;
73872;SDS011;62206;47.568;9.364;2024-03-22T12:05:11;10.98;;;9.20;;
73872;SDS011;62206;47.568;9.364;2024-03-22T12:07:39;10.95;;;9.15;;
73872;SDS011;62206;47.568;9.364;2024-03-22T12:10:07;12.38;;;8.32;;
73872;SDS011;62206;47.568;9.364;2024-03-22T12:12:35;9.05;;;8.13;;
73872;SDS011;62206;47.568;9.364;2024-03-22T12:15:03;10.60;;;7.53;;
73872;SDS011;62206;47.568;9.364;2024-03-22T12:17:29;10.05;;;8.23;;
73872;SDS011;62206;47.568;9.364;2024-03-22T12:19:56;9.38;;;8.10;;
73872;SDS011;62206;47.568;9.364;2024-03-22T12:22:22;9.52;;;8.15;;
73872;SDS011;62206;47.568;9.364;2024-03-22T12:24:53;9.48;;;7.47;;
73872;SDS011;62206;47.568;9.364;2024-03-22T12:27:18;8.52;;;6.88;;
73872;SDS011;62206;47.568;9.364;2024-03-22T12:29:45;8.70;;;6.27;;
73872;SDS011;62206;47.568;9.364;2024-03-22T12:32:12;8.65;;;7.47;;
73872;SDS011;62206;47.568;9.364;2024-03-22T12:34:39;8.48;;;6.65;;
73872;SDS011;62206;47.568;9.364;2024-03-22T12:37:05;9.40;;;6.93;;
73872;SDS011;62206;47.568;9.364;2024-03-22T12:39:33;9.90;;;7.00;;
73872;SDS011;62206;47.568;9.364;2024-03-22T12:42:00;7.63;;;6.75;;
73872;SDS011;62206;47.568;9.364;2024-03-22T12:44:27;8.70;;;5.43;;
73872;SDS011;62206;47.568;9.364;2024-03-22T12:46:54;9.57;;;7.65;;
73872;SDS011;62206;47.568;9.364;2024-03-22T12:49:21;8.93;;;7.90;;
73872;SDS011;62206;47.568;9.364;2024-03-22T12:51:47;9.38;;;7.70;;
73872;SDS011;62206;47.568;9.364;2024-03-22T12:54:15;7.90;;;7.10;;
73872;SDS011;62206;47.568;9.364;2024-03-22T12:56:43;8.18;;;6.22;;
73872;SDS011;62206;47.568;9.364;2024-03-22T12:59:12;10.00;;;6.72;;
73872;SDS011;62206;47.568;9.364;2024-03-22T13:01:38;9.35;;;7.80;;
73872;SDS011;62206;47.568;9.364;2024-03-22T13:04:05;11.07;;;6.68;;
73872;SDS011;62206;47.568;9.364;2024-03-22T13:06:34;7.10;;;6.13;;
73872;SDS011;62206;47.568;9.364;2024-03-22T13:09:01;7.43;;;5.95;;
73872;SDS011;62206;47.568;9.364;2024-03-22T13:11:29;7.72;;;6.05;;
73872;SDS011;62206;47.568;9.364;2024-03-22T13:13:57;8.07;;;6.50;;
73872;SDS011;62206;47.568;9.364;2024-03-22T13:16:26;6.78;;;5.47;;
73872;SDS011;62206;47.568;9.364;2024-03-22T13:18:53;7.35;;;5.35;;
73872;SDS011;62206;47.568;9.364;2024-03-22T13:21:19;5.93;;;5.22;;
73872;SDS011;62206;47.568;9.364;2024-03-22T13:23:46;7.10;;;5.35;;
73872;SDS011;62206;47.568;9.364;2024-03-22T13:26:13;6.15;;;4.90;;
73872;SDS011;62206;47.568;9.364;2024-03-22T13:28:39;7.07;;;5.40;;
73872;SDS011;62206;47.568;9.364;2024-03-22T13:31:08;7.25;;;5.53;;
73872;SDS011;62206;47.568;9.364;2024-03-22T13:33:36;7.25;;;6.30;;
73872;SDS011;62206;47.568;9.364;2024-03-22T13:36:02;7.18;;;5.53;;
73872;SDS011;62206;47.568;9.364;2024-03-22T13:38:31;6.88;;;5.70;;
73872;SDS011;62206;47.568;9.364;2024-03-22T13:40:58;6.27;;;5.13;;
73872;SDS011;62206;47.568;9.364;2024-03-22T13:43:26;7.15;;;5.20;;
73872;SDS011;62206;47.568;9.364;2024-03-22T13:45:53;7.63;;;6.45;;
73872;SDS011;62206;47.568;9.364;2024-03-22T13:48:20;7.65;;;5.30;;
73872;SDS011;62206;47.568;9.364;2024-03-22T13:50:50;6.50;;;5.80;;
73872;SDS011;62206;47.568;9.364;2024-03-22T13:53:19;7.37;;;5.00;;
73872;SDS011;62206;47.568;9.364;2024-03-22T13:55:47;6.68;;;4.80;;
73872;SDS011;62206;47.568;9.364;2024-03-22T13:58:14;8.57;;;5.57;;
73872;SDS011;62206;47.568;9.364;2024-03-22T14:00:40;7.15;;;5.60;;
73872;SDS011;62206;47.568;9.364;2024-03-22T14:03:07;6.60;;;5.32;;
73872;SDS011;62206;47.568;9.364;2024-03-22T14:05:33;7.47;;;6.37;;
73872;SDS011;62206;47.568;9.364;2024-03-22T14:08:03;7.28;;;6.28;;
73872;SDS011;62206;47.568;9.364;2024-03-22T14:10:29;9.32;;;7.20;;
73872;SDS011;62206;47.568;9.364;2024-03-22T14:12:56;8.52;;;6.65;;
73872;SDS011;62206;47.568;9.364;2024-03-22T14:15:23;8.00;;;6.50;;
73872;SDS011;62206;47.568;9.364;2024-03-22T14:17:52;7.28;;;6.50;;
73872;SDS011;62206;47.568;9.364;2024-03-22T14:20:18;9.85;;;7.00;;
73872;SDS011;62206;47.568;9.364;2024-03-22T14:22:45;8.63;;;6.88;;
73872;SDS011;62206;47.568;9.364;2024-03-22T14:25:14;10.43;;;7.18;;
73872;SDS011;62206;47.568;9.364;2024-03-22T14:27:40;8.97;;;6.63;;
73872;SDS011;62206;47.568;9.364;2024-03-22T14:30:11;8.65;;;7.07;;
73872;SDS011;62206;47.568;9.364;2024-03-22T14:32:39;9.15;;;6.63;;
73872;SDS011;62206;47.568;9.364;2024-03-22T14:35:06;10.02;;;6.82;;
73872;SDS011;62206;47.568;9.364;2024-03-22T14:37:34;9.25;;;6.55;;
73872;SDS011;62206;47.568;9.364;2024-03-22T14:40:00;7.43;;;6.40;;